createdAt,value
2022-10-11T00:01:22.316Z,66.98
2022-10-11T00:03:48.917Z,67.13
2022-10-11T00:06:15.830Z,66.64
2022-10-11T00:08:46.210Z,66.51
2022-10-11T00:11:12.965Z,66.41
2022-10-11T00:13:39.608Z,65.80
2022-10-11T00:16:10.807Z,65.59
2022-10-11T00:18:38.266Z,65.55
2022-10-11T00:21:07.209Z,65.26
2022-10-11T00:23:34.183Z,64.95
2022-10-11T00:26:03.503Z,65.00
2022-10-11T00:28:30.658Z,64.93
2022-10-11T00:30:58.918Z,64.55
2022-10-11T00:33:25.582Z,64.46
2022-10-11T00:35:52.164Z,64.38
2022-10-11T00:38:19.028Z,64.37
2022-10-11T00:40:45.842Z,63.89
2022-10-11T00:43:21.907Z,63.66
2022-10-11T00:45:57.618Z,63.62
2022-10-11T00:48:29.570Z,63.28
2022-10-11T00:50:57.745Z,63.18
2022-10-11T00:53:24.903Z,63.09
2022-10-11T00:56:00.732Z,63.07
2022-10-11T00:58:27.585Z,62.87
2022-10-11T01:00:54.469Z,62.99
2022-10-11T01:03:21.617Z,62.71
2022-10-11T01:05:48.227Z,62.66
2022-10-11T01:08:14.890Z,62.59
2022-10-11T01:10:41.445Z,62.48
2022-10-11T01:13:23.133Z,62.30
2022-10-11T01:16:35.477Z,62.17
2022-10-11T01:19:36.134Z,62.04
2022-10-11T01:22:17.977Z,62.04
2022-10-11T01:24:44.562Z,61.92
2022-10-11T01:27:37.137Z,61.60
2022-10-11T01:30:18.821Z,61.58
2022-10-11T01:33:22.632Z,61.46
2022-10-11T01:35:56.947Z,61.23
2022-10-11T01:38:42.282Z,61.33
2022-10-11T01:41:28.730Z,61.04
2022-10-11T01:44:00.579Z,60.68
2022-10-11T01:46:28.654Z,60.76
2022-10-11T01:48:59.806Z,60.40
2022-10-11T01:51:32.092Z,60.52
2022-10-11T01:54:16.934Z,60.34
2022-10-11T01:57:15.706Z,60.38
2022-10-11T01:59:57.522Z,60.05
2022-10-11T02:02:36.078Z,59.89
2022-10-11T02:05:38.237Z,59.57
2022-10-11T02:08:18.962Z,59.36
2022-10-11T02:10:53.846Z,59.48
2022-10-11T02:13:24.262Z,59.23
2022-10-11T02:15:52.665Z,59.25
2022-10-11T02:18:28.964Z,59.28
2022-10-11T02:24:06.385Z,58.95
2022-10-11T02:26:44.297Z,58.73
2022-10-11T02:29:26.382Z,58.63
2022-10-11T02:32:03.894Z,58.56
2022-10-11T02:34:49.239Z,58.29
2022-10-11T02:37:56.755Z,57.96
2022-10-11T02:40:31.484Z,57.90
2022-10-11T02:43:18.944Z,57.54
2022-10-11T02:45:54.799Z,57.41
2022-10-11T02:48:29.491Z,57.49
2022-10-11T02:51:13.014Z,57.21
2022-10-11T02:53:41.029Z,57.08
2022-10-11T02:56:17.065Z,56.78
2022-10-11T02:58:43.760Z,56.30
2022-10-11T03:01:12.966Z,56.32
2022-10-11T03:03:45.057Z,56.54
2022-10-11T03:06:11.714Z,56.67
2022-10-11T03:08:40.631Z,56.42
2022-10-11T03:13:58.781Z,56.64
2022-10-11T03:16:27.533Z,56.16
2022-10-11T03:18:55.704Z,56.46
2022-10-11T03:21:29.064Z,55.97
2022-10-11T03:24:14.598Z,56.09
2022-10-11T03:26:42.850Z,55.72
2022-10-11T03:29:09.526Z,55.88
2022-10-11T03:31:39.553Z,55.71
2022-10-11T03:34:14.041Z,55.07
2022-10-11T03:36:40.665Z,54.92
2022-10-11T03:39:10.120Z,55.03
2022-10-11T03:41:45.936Z,54.77
2022-10-11T03:44:14.200Z,54.88
2022-10-11T03:46:40.851Z,54.81
2022-10-11T03:49:15.769Z,54.74
2022-10-11T03:54:44.204Z,54.72
2022-10-11T03:57:13.678Z,54.33
2022-10-11T03:59:40.377Z,54.49
2022-10-11T04:02:14.909Z,54.34
2022-10-11T04:04:41.507Z,54.09
2022-10-11T04:07:10.991Z,53.92
2022-10-11T04:09:49.923Z,53.84
2022-10-11T04:12:22.412Z,53.75
2022-10-11T04:14:57.519Z,53.53
2022-10-11T04:17:28.292Z,53.83
2022-10-11T04:20:04.523Z,53.64
2022-10-11T04:22:43.007Z,53.52
2022-10-11T04:25:28.824Z,53.41
2022-10-11T04:28:26.447Z,53.62
2022-10-11T04:30:56.415Z,53.58
2022-10-11T04:33:30.545Z,53.64
2022-10-11T04:38:56.279Z,53.15
2022-10-11T04:41:23.140Z,53.00
2022-10-11T04:43:54.540Z,52.92
2022-10-11T04:49:22.912Z,52.76
2022-10-11T04:51:53.675Z,52.76
2022-10-11T04:54:33.156Z,52.53
2022-10-11T04:57:12.836Z,52.69
2022-10-11T04:59:39.681Z,52.49
2022-10-11T05:02:06.551Z,52.25
2022-10-11T05:04:36.914Z,52.06
2022-10-11T05:07:12.834Z,51.98
2022-10-11T05:09:54.616Z,52.15
2022-10-11T05:12:22.738Z,52.09
2022-10-11T05:14:49.384Z,52.17
2022-10-11T05:17:33.541Z,51.36
2022-10-11T05:20:10.026Z,51.49
2022-10-11T05:25:21.653Z,51.02
2022-10-11T05:27:53.565Z,50.63
2022-10-11T05:30:51.214Z,50.79
2022-10-11T05:33:58.400Z,51.06
2022-10-11T05:36:33.782Z,50.84
2022-10-11T05:39:16.495Z,51.07
2022-10-11T05:44:46.419Z,50.43
2022-10-11T05:47:18.368Z,50.79
2022-10-11T05:49:59.151Z,50.66
2022-10-11T05:52:37.303Z,50.81
2022-10-11T05:55:08.929Z,50.97
2022-10-11T05:57:54.718Z,51.03
2022-10-11T06:00:49.964Z,51.05
2022-10-11T06:04:12.078Z,51.27
2022-10-11T06:06:38.931Z,51.33
2022-10-11T06:09:05.627Z,51.21
2022-10-11T06:12:30.279Z,51.58
2022-10-11T06:15:36.002Z,51.88
2022-10-11T06:18:15.874Z,52.42
2022-10-11T06:21:16.845Z,52.70
2022-10-11T06:23:43.467Z,52.88
2022-10-11T06:26:14.768Z,53.30
2022-10-11T06:28:47.241Z,53.77
2022-10-11T06:31:14.213Z,54.66
2022-10-11T06:33:40.816Z,55.00
2022-10-11T06:36:14.384Z,55.31
2022-10-11T06:39:07.380Z,56.32
2022-10-11T06:41:45.097Z,57.04
2022-10-11T06:44:19.718Z,59.69
2022-10-11T06:46:54.031Z,60.16
2022-10-11T06:49:23.302Z,60.61
2022-10-11T06:51:50.799Z,61.16
2022-10-11T06:54:26.189Z,61.76
2022-10-11T06:57:14.881Z,61.99
2022-10-11T06:59:44.656Z,62.45
2022-10-11T07:02:20.401Z,62.29
2022-10-11T07:09:14.739Z,63.16
2022-10-11T07:20:24.417Z,64.17
2022-10-11T07:23:18.071Z,64.71
2022-10-11T07:25:55.269Z,64.81
2022-10-11T07:28:22.736Z,65.36
2022-10-11T07:30:50.063Z,65.57
2022-10-11T07:39:38.389Z,66.51
2022-10-11T07:48:31.268Z,67.39
2022-10-11T07:55:42.370Z,68.62
2022-10-11T07:58:12.989Z,68.89
2022-10-11T08:00:42.763Z,69.22
2022-10-11T08:03:11.432Z,69.45
2022-10-11T08:05:39.100Z,69.83
2022-10-11T08:08:28.570Z,70.18
2022-10-11T08:14:24.241Z,70.93
2022-10-11T08:16:50.893Z,71.38
2022-10-11T08:21:38.192Z,71.63
2022-10-11T08:24:10.237Z,72.33
2022-10-11T08:27:30.618Z,72.86
2022-10-11T08:29:57.297Z,73.22
2022-10-11T08:39:57.637Z,74.40
2022-10-11T08:42:45.733Z,74.93
2022-10-11T08:50:03.129Z,76.09
2022-10-11T08:56:18.254Z,77.65
2022-10-11T08:59:12.118Z,77.82
2022-10-11T09:01:43.525Z,78.15
2022-10-11T09:04:14.115Z,78.72
2022-10-11T09:06:56.772Z,78.91
2022-10-11T09:09:56.163Z,79.29
2022-10-11T09:12:51.126Z,79.89
2022-10-11T09:15:22.143Z,80.70
2022-10-11T09:17:50.057Z,81.50
2022-10-11T09:20:39.087Z,82.18
2022-10-11T09:23:26.421Z,83.74
2022-10-11T09:26:08.839Z,85.04
2022-10-11T09:28:51.147Z,86.36
2022-10-11T09:31:18.694Z,88.23
2022-10-11T09:33:53.144Z,88.75
2022-10-11T09:36:28.746Z,90.48
2022-10-11T09:39:28.721Z,90.64
2022-10-11T09:42:06.259Z,92.67
2022-10-11T09:51:37.907Z,98.38
2022-10-11T09:54:50.183Z,100.00
2022-10-11T09:58:17.614Z,100.00
2022-10-11T10:01:19.220Z,100.00
2022-10-11T10:04:50.204Z,100.00
2022-10-11T10:08:05.212Z,100.00
2022-10-11T10:15:04.157Z,100.00
2022-10-11T10:17:30.884Z,100.00
2022-10-11T10:23:44.888Z,100.00
2022-10-11T10:26:46.564Z,100.00
2022-10-11T10:29:44.344Z,100.00
2022-10-11T10:35:54.626Z,100.00
2022-10-11T10:38:52.022Z,100.00
2022-10-11T10:41:19.548Z,100.00
2022-10-11T10:44:05.577Z,100.00
2022-10-11T10:46:50.906Z,100.00
2022-10-11T10:50:33.293Z,100.00
2022-10-11T10:53:20.187Z,100.00
2022-10-11T10:55:55.716Z,100.00
2022-10-11T10:58:39.517Z,100.00
2022-10-11T11:01:54.939Z,100.00
2022-10-11T11:04:54.021Z,100.00
2022-10-11T11:12:18.319Z,100.00
2022-10-11T11:15:37.733Z,100.00
2022-10-11T11:19:37.937Z,100.00
2022-10-11T11:22:07.102Z,100.00
2022-10-11T11:25:09.719Z,100.00
2022-10-11T11:31:33.792Z,100.00
2022-10-11T11:34:43.523Z,100.00
2022-10-11T11:42:33.801Z,100.00
2022-10-11T11:44:46.881Z,100.00
2022-10-11T11:48:29.959Z,100.00
2022-10-11T11:54:40.171Z,100.00
2022-10-11T12:00:34.948Z,100.00
2022-10-11T12:04:02.390Z,100.00
2022-10-11T12:07:25.234Z,100.00
2022-10-11T12:10:50.187Z,100.00
2022-10-11T12:13:50.391Z,100.00
2022-10-11T12:16:21.041Z,100.00
2022-10-11T12:22:34.477Z,100.00
2022-10-11T12:25:22.654Z,100.00
2022-10-11T12:28:21.119Z,100.00
2022-10-11T12:30:47.921Z,100.00
2022-10-11T12:33:23.853Z,100.00
2022-10-11T12:35:53.720Z,100.00
2022-10-11T12:38:34.001Z,100.00
2022-10-11T12:41:09.723Z,100.00
2022-10-11T12:44:13.391Z,100.00
2022-10-11T12:46:57.898Z,100.00
2022-10-11T12:49:33.391Z,100.00
2022-10-11T12:52:02.172Z,100.00
2022-10-11T12:54:43.747Z,100.00
2022-10-11T12:57:31.728Z,100.00
2022-10-11T13:00:17.876Z,100.00
2022-10-11T13:02:44.842Z,100.00
2022-10-11T13:05:22.292Z,100.00
2022-10-11T13:07:49.610Z,100.00
2022-10-11T13:10:19.185Z,100.00
2022-10-11T13:12:47.668Z,100.00
2022-10-11T13:15:19.653Z,100.00
2022-10-11T13:17:48.595Z,100.00
2022-10-11T13:20:18.240Z,100.00
2022-10-11T13:22:48.059Z,100.00
2022-10-11T13:25:23.036Z,100.00
2022-10-11T13:27:51.062Z,100.00
2022-10-11T13:30:20.965Z,100.00
2022-10-11T13:32:47.959Z,100.00
2022-10-11T13:35:24.014Z,100.00
2022-10-11T13:37:51.852Z,100.00
2022-10-11T13:41:02.594Z,100.00
2022-10-11T13:43:30.078Z,100.00
2022-10-11T13:46:12.406Z,100.00
2022-10-11T13:48:44.737Z,100.00
2022-10-11T13:51:26.808Z,100.00
2022-10-11T13:54:13.850Z,100.00
2022-10-11T13:56:50.731Z,100.00
2022-10-11T13:59:30.548Z,100.00
2022-10-11T14:02:01.252Z,100.00
2022-10-11T14:07:47.670Z,100.00
2022-10-11T14:10:21.476Z,100.00
2022-10-11T14:13:01.567Z,100.00
2022-10-11T14:15:46.297Z,100.00
2022-10-11T14:18:39.044Z,100.00
2022-10-11T14:21:31.465Z,100.00
2022-10-11T14:23:59.803Z,100.00
2022-10-11T14:26:29.982Z,100.00
2022-10-11T14:29:01.680Z,100.00
2022-10-11T14:31:30.490Z,100.00
2022-10-11T14:33:57.747Z,100.00
2022-10-11T14:36:24.932Z,100.00
2022-10-11T14:38:52.697Z,100.00
2022-10-11T14:41:19.360Z,100.00
2022-10-11T14:43:51.127Z,100.00
2022-10-11T14:46:25.849Z,100.00
2022-10-11T14:48:55.939Z,100.00
2022-10-11T14:51:26.807Z,100.00
2022-10-11T14:53:53.474Z,100.00
2022-10-11T14:56:21.668Z,100.00
2022-10-11T14:59:01.097Z,100.00
2022-10-11T15:01:40.722Z,100.00
2022-10-11T15:04:31.007Z,100.00
2022-10-11T15:07:15.430Z,100.00
2022-10-11T15:09:42.281Z,100.00
2022-10-11T15:12:14.777Z,100.00
2022-10-11T15:20:49.494Z,100.00
2022-10-11T15:23:29.313Z,100.00
2022-10-11T15:27:09.987Z,100.00
2022-10-11T16:02:39.630Z,100.00
2022-10-11T16:05:10.556Z,100.00
2022-10-11T16:08:07.859Z,100.00
2022-10-11T16:11:27.819Z,100.00
2022-10-11T16:14:06.901Z,100.00
2022-10-11T16:16:33.779Z,100.00
2022-10-11T16:19:01.856Z,100.00
2022-10-11T16:21:32.330Z,100.00
2022-10-11T16:23:59.594Z,100.00
2022-10-11T16:26:27.605Z,100.00
2022-10-11T16:29:01.246Z,100.00
2022-10-11T16:31:31.602Z,100.00
2022-10-11T16:33:58.698Z,100.00
2022-10-11T16:36:51.678Z,100.00
2022-10-11T16:39:19.788Z,100.00
2022-10-11T16:41:47.151Z,100.00
2022-10-11T16:44:17.999Z,100.00
2022-10-11T16:46:51.789Z,100.00
2022-10-11T16:49:21.992Z,99.85
2022-10-11T16:51:49.748Z,98.79
2022-10-11T16:54:20.385Z,98.51
2022-10-11T16:56:51.045Z,97.70
2022-10-11T16:59:17.842Z,97.05
2022-10-11T17:01:45.176Z,96.12
2022-10-11T17:04:24.398Z,95.61
2022-10-11T17:06:57.508Z,95.15
2022-10-11T17:09:25.723Z,94.37
2022-10-11T17:11:52.422Z,93.78
2022-10-11T17:14:24.456Z,93.51
2022-10-11T17:16:57.932Z,92.54
2022-10-11T17:19:29.634Z,91.85
2022-10-11T17:22:06.656Z,91.38
2022-10-11T17:24:45.912Z,91.22
2022-10-11T17:27:17.233Z,90.96
2022-10-11T17:30:07.763Z,90.74
2022-10-11T17:32:43.671Z,90.79
2022-10-11T17:35:10.553Z,90.91
2022-10-11T17:37:45.073Z,90.67
2022-10-11T17:42:58.281Z,90.38
2022-10-11T17:45:38.340Z,90.06
2022-10-11T17:48:05.244Z,89.81
2022-10-11T17:50:50.773Z,89.54
2022-10-11T17:53:17.640Z,89.06
2022-10-11T17:55:52.163Z,88.91
2022-10-11T17:59:20.040Z,88.55
2022-10-11T18:04:32.284Z,87.32
2022-10-11T18:07:02.098Z,87.12
2022-10-11T18:09:32.221Z,86.75
2022-10-11T18:12:05.863Z,86.49
2022-10-11T18:15:02.707Z,85.84
2022-10-11T18:20:55.626Z,85.57
2022-10-11T18:23:32.918Z,85.27
2022-10-11T18:26:22.773Z,84.80
2022-10-11T18:29:01.059Z,84.40
2022-10-11T18:32:18.143Z,84.57
2022-10-11T18:35:03.449Z,84.20
2022-10-11T18:37:35.944Z,84.48
2022-10-11T18:40:08.024Z,83.91
2022-10-11T18:43:27.462Z,83.63
2022-10-11T18:46:29.808Z,82.88
2022-10-11T18:49:35.993Z,82.28
2022-10-11T18:52:14.725Z,82.31
2022-10-11T18:54:43.805Z,82.64
2022-10-11T18:57:24.204Z,82.32
2022-10-11T19:00:37.727Z,82.18
2022-10-11T19:02:57.206Z,81.98
2022-10-11T19:05:35.087Z,82.05
2022-10-11T19:08:09.084Z,81.43
2022-10-11T19:10:43.111Z,81.83
2022-10-11T19:13:15.839Z,81.34
2022-10-11T19:15:54.244Z,81.35
2022-10-11T19:18:49.533Z,80.62
2022-10-11T19:21:21.176Z,80.00
2022-10-11T19:23:59.715Z,79.93
2022-10-11T19:26:52.998Z,79.58
2022-10-11T19:29:34.790Z,79.46
2022-10-11T19:32:15.595Z,79.04
2022-10-11T19:37:31.297Z,79.60
2022-10-11T19:40:07.257Z,79.32
2022-10-11T19:42:34.404Z,79.28
2022-10-11T19:45:13.155Z,79.10
2022-10-11T19:47:45.170Z,79.15
2022-10-11T19:50:12.009Z,79.17
2022-10-11T19:52:57.338Z,79.53
2022-10-11T19:55:46.287Z,79.76
2022-10-11T19:58:15.832Z,80.92
2022-10-11T20:00:51.774Z,80.76
2022-10-11T20:03:24.682Z,80.47
2022-10-11T20:05:54.248Z,80.40
2022-10-11T20:08:23.762Z,80.86
2022-10-11T20:10:53.569Z,81.23
2022-10-11T20:13:34.691Z,81.03
2022-10-11T20:16:17.230Z,81.23
2022-10-11T20:18:49.350Z,81.24
2022-10-11T20:21:28.579Z,81.03
2022-10-11T20:24:11.084Z,80.99
2022-10-11T20:26:43.790Z,80.64
2022-10-11T20:29:21.408Z,80.54
2022-10-11T20:31:53.773Z,80.12
2022-10-11T20:34:26.763Z,79.81
2022-10-11T20:37:17.638Z,79.59
2022-10-11T20:40:05.274Z,79.43
2022-10-11T20:42:42.069Z,79.58
2022-10-11T20:45:32.448Z,78.88
2022-10-11T20:48:04.514Z,78.91
2022-10-11T20:50:38.896Z,78.86
2022-10-11T20:53:10.836Z,79.14
2022-10-11T20:55:46.418Z,79.02
2022-10-11T20:58:25.096Z,79.24
2022-10-11T21:01:10.383Z,79.67
2022-10-11T21:06:36.700Z,79.05
2022-10-11T21:09:20.298Z,78.91
2022-10-11T21:12:17.987Z,79.09
2022-10-11T21:14:47.197Z,79.04
2022-10-11T21:17:30.113Z,78.26
2022-10-11T21:20:02.907Z,78.18
2022-10-11T21:22:46.258Z,77.81
2022-10-11T21:25:42.133Z,77.60
2022-10-11T21:28:14.675Z,77.45
2022-10-11T21:30:49.497Z,77.46
2022-10-11T21:33:24.035Z,77.64
2022-10-11T21:38:50.247Z,77.69
2022-10-11T21:41:28.956Z,77.43
2022-10-11T21:43:55.684Z,77.46
2022-10-11T21:47:05.629Z,77.05
2022-10-11T21:50:01.722Z,77.06
2022-10-11T21:52:33.854Z,77.59
2022-10-11T21:55:05.964Z,77.64
2022-10-11T21:57:37.256Z,78.10
2022-10-11T22:01:58.046Z,78.59
2022-10-11T22:03:02.382Z,78.78
2022-10-11T22:05:29.031Z,79.54
2022-10-11T22:08:07.886Z,79.32
2022-10-11T22:10:37.052Z,79.54
2022-10-11T22:13:09.267Z,79.76
2022-10-11T22:15:36.096Z,79.77
2022-10-11T22:18:03.148Z,79.13
2022-10-11T22:20:29.785Z,78.85
2022-10-11T22:22:56.427Z,78.46
2022-10-11T22:25:34.087Z,78.06
2022-10-11T22:28:08.680Z,77.92
2022-10-11T22:30:38.878Z,77.83
2022-10-11T22:33:21.409Z,77.64
2022-10-11T22:36:20.650Z,77.07
2022-10-11T22:39:13.090Z,76.76
2022-10-11T22:41:49.509Z,76.60
2022-10-11T22:44:19.913Z,75.73
2022-10-11T22:49:44.552Z,75.80
2022-10-11T22:52:27.217Z,75.37
2022-10-11T22:54:55.949Z,75.41
2022-10-11T22:57:23.031Z,75.22
2022-10-11T23:00:01.026Z,75.03
2022-10-11T23:02:30.693Z,75.08
2022-10-11T23:05:03.660Z,75.05
2022-10-11T23:07:39.566Z,74.73
2022-10-11T23:10:17.747Z,74.11
2022-10-11T23:18:15.136Z,73.07
2022-10-11T23:20:46.063Z,72.63
2022-10-11T23:23:15.854Z,71.94
2022-10-11T23:25:42.991Z,71.57
2022-10-11T23:28:26.990Z,71.29
2022-10-11T23:31:00.765Z,71.24
2022-10-11T23:33:30.930Z,71.06
2022-10-11T23:35:59.795Z,70.83
2022-10-11T23:38:34.514Z,70.35
2022-10-11T23:41:03.391Z,70.31
2022-10-11T23:43:33.042Z,70.23
2022-10-11T23:46:28.601Z,69.23
2022-10-11T23:49:23.748Z,69.03
2022-10-11T23:51:55.903Z,68.90
2022-10-11T23:54:42.280Z,68.92
2022-10-11T23:57:11.791Z,68.66
2022-10-11T23:59:53.790Z,68.78
